• Join FlightAware (Why Join?)
  • Login
  • US Flag 
01:51PM EDT


 

Airport Tracker/Info


-or-


 

Live Flight TrackerFlight Track Log ✈ UAL6148 ✈ 12-May-2013 ✈ KLNK - KDEN

Flight Track Log - Related Links

Times and Time Zones

All times are in EDT time to prevent confusion due to time zone crossing. See the UAL6148 flight status page for this flight to view local times or setup timezone preferences in your user account.

Time Position Orientation Groundspeed Altitude Reporting Facility
EDT Latitude Longitude Course Direction KTS MPH feet Rate Location/Type
09:35PM 40.8094 -96.7572 219° Southwest 169 194 1,900  Level Minneapolis Center
09:36PM 40.7642 -96.8058 219° Southwest 220 253 4,600 2,160 Climbing Minneapolis Center
09:36PM 40.7703 -96.8561 279° West 218 251 5,700 2,280 Climbing Minneapolis Center
09:37PM 40.7614 -96.9489 263° West 249 287 8,500 2,280 Climbing Minneapolis Center
09:38PM 40.7400 -97.0250 250° West 270 311 10,400 1,560 Climbing Minneapolis Center
09:39PM 40.6892 -97.1533 242° Southwest 327 376 11,700 1,800 Climbing Minneapolis Center
09:40PM 40.6403 -97.2942 245° Southwest 350 403 14,100 1,800 Climbing Minneapolis Center
09:41PM 40.6017 -97.3956 243° Southwest 356 410 15,500 1,620 Climbing Minneapolis Center
09:42PM 40.5747 -97.5475 257° West 356 410 17,500 1,320 Climbing Minneapolis Center
09:44PM 40.5797 -97.6797 273° West 359 413 18,500 1,080 Climbing Minneapolis Center
09:45PM 40.5864 -97.8450 273° West 373 429 20,000 1,260 Climbing Minneapolis Center
09:46PM 40.5908 -97.9864 272° West 382 440 21,200 1,140 Climbing Minneapolis Center
09:47PM 40.5950 -98.1314 272° West 391 450 22,400 1,380 Climbing Minneapolis Center
09:48PM 40.5997 -98.2781 272° West 398 458 24,100 1,440 Climbing Minneapolis Center
09:49PM 40.6039 -98.4206 272° West 392 451 25,400 1,260 Climbing Minneapolis Center
09:50PM 40.6153 -98.5611 276° West 387 445 26,700 1,260 Climbing Minneapolis Center
09:51PM 40.6289 -98.7011 277° West 385 443 28,100 1,320 Climbing Minneapolis Center
09:52PM 40.6406 -98.8406 276° West 382 440 29,500 1,080 Climbing Minneapolis Center
09:53PM 40.6528 -98.9806 277° West 382 440 30,400 840 Climbing Minneapolis Center
09:54PM 40.6625 -99.0956 276° West 387 445 31,300 840 Climbing Minneapolis Center
09:55PM 40.6778 -99.2722 277° West 398 458 32,000 360 Climbing Denver Center
09:56PM 40.6911 -99.4222 277° West 408 470 32,000  Level Denver Center
09:57PM 40.7025 -99.5714 276° West 408 470 32,000  Level Denver Center
09:58PM 40.7153 -99.7181 277° West 403 464 32,000  Level Denver Center
09:59PM 40.7267 -99.8661 276° West 401 461 32,000  Level Denver Center
10:00PM 40.7383 -100.0281 275° West 398 458 32,000  Level Denver Center
10:01PM 40.7664 -100.1581 286° West 388 447 32,000  Level Denver Center
10:02PM 40.8097 -100.3003 292° West 377 434 32,000  Level Denver Center
10:03PM 40.8467 -100.4225 292° West 377 434 32,000  Level Denver Center
10:04PM 40.8886 -100.5669 291° West 383 441 32,000  Level Denver Center
10:05PM 40.8781 -100.7125 265° West 411 473 32,000  Level Denver Center
10:06PM 40.8583 -100.8858 262° West 446 513 32,000  Level Denver Center
10:07PM 40.8392 -101.0447 261° West 458 527 32,000  Level Denver Center
10:08PM 40.8169 -101.2358 261° West 471 542 32,000  Level Denver Center
10:09PM 40.7969 -101.3969 261° West 466 536 32,000  Level Denver Center
10:10PM 40.7742 -101.5822 261° West 460 529 32,000  Level Denver Center
10:11PM 40.7547 -101.7403 261° West 458 527 32,000  Level Denver Center
10:12PM 40.7322 -101.9219 261° West 451 519 32,000  Level Denver Center
10:13PM 40.7125 -102.0772 261° West 449 517 32,000  Level Denver Center
10:14PM 40.6894 -102.2581 261° West 448 516 32,000  Level Denver Center
10:15PM 40.6686 -102.4119 260° West 447 514 32,000  Level Denver Center
10:16PM 40.6486 -102.5664 260° West 447 514 32,000  Level Denver Center
10:17PM 40.6247 -102.7469 260° West 449 517 32,000  Level Denver Center
10:18PM 40.6036 -102.9011 260° West 448 516 32,000 -300 Level Denver Center
10:20PM 40.5797 -103.0839 260° West 453 521 31,400 -1,440 Descending Denver Center
10:21PM 40.5581 -103.2422 260° West 461 531 29,100 -2,220 Descending Denver Center
10:22PM 40.5344 -103.4042 259° West 452 520 26,900 -1,980 Descending Denver Center
10:23PM 40.5108 -103.5775 260° West 435 501 25,100 -1,680 Descending Denver Center
10:24PM 40.4903 -103.7197 259° West 418 481 23,500 -1,860 Descending Denver Center
10:25PM 40.4550 -103.8658 252° West 388 447 21,400 -1,980 Descending Denver Center
10:26PM 40.3875 -103.9642 228° Southwest 364 419 19,500 -1,680 Descending Denver Center
10:27PM 40.2872 -104.0119 200° South 359 413 18,000 -840 Descending Denver Center
10:28PM 40.2219 -104.0681 213° Southwest 300 345 17,800 -720 Descending Denver Center
10:29PM 40.2522 -104.1486 296° West 257 296 16,600 -1,260 Descending Denver Center
10:30PM 40.2872 -104.2278 300° West 245 282 15,300 -1,440 Descending Denver Center
10:31PM 40.2692 -104.3150 255° West 254 292 13,700 -1,560 Descending Denver Center
10:32PM 40.2292 -104.3931 236° Southwest 259 298 12,100 -1,560 Descending Denver Center
10:33PM 40.1872 -104.4778 237° Southwest 258 297 10,600 -1,080 Descending Denver Center
10:34PM 40.1514 -104.5550 239° Southwest 251 289 9,900 -1,080 Descending Denver Center
10:35PM 40.1039 -104.6150 224° Southwest 244 281 8,500 -1,080 Descending Denver Center
10:36PM 40.0500 -104.6525 208° Southwest 207 238 7,700 -720 Descending Denver Center
10:37PM 40.0078 -104.6764 203° Southwest 172 198 7,100 -540 Descending Denver Center
10:38PM 39.9644 -104.6858 189° South 159 183 6,600 -660 Descending Denver Center
10:39PM 39.9194 -104.6864 181° South 152 175 5,800 -600 Descending Denver Center
10:40PM 39.8792 -104.6867 180° South 149 171 5,400 -420 Descending Denver Center
10:42PM 39.8617 -104.6732 180° South  Level Estimated
10:49PM 39.8617 -104.6732 180° South  Level Estimated
10:50PM 39.8617 -104.6732 180° South  Level Estimated